sensor_id;sensor_type;location;lat;lon;timestamp;temperature;humidity
16958;DHT22;8595;52.542;11.974;2022-12-07T00:01:21;1.80;99.90
16958;DHT22;8595;52.542;11.974;2022-12-07T00:03:51;1.80;99.90
16958;DHT22;8595;52.542;11.974;2022-12-07T00:06:19;1.80;99.90
16958;DHT22;8595;52.542;11.974;2022-12-07T00:08:47;1.90;99.90
16958;DHT22;8595;52.542;11.974;2022-12-07T00:11:15;1.90;99.90
16958;DHT22;8595;52.542;11.974;2022-12-07T00:13:43;1.90;99.90
16958;DHT22;8595;52.542;11.974;2022-12-07T00:16:12;2.00;99.90
16958;DHT22;8595;52.542;11.974;2022-12-07T00:18:39;2.00;99.90
16958;DHT22;8595;52.542;11.974;2022-12-07T00:21:10;2.00;99.90
16958;DHT22;8595;52.542;11.974;2022-12-07T00:23:38;2.00;99.90
16958;DHT22;8595;52.542;11.974;2022-12-07T00:26:06;2.00;99.90
16958;DHT22;8595;52.542;11.974;2022-12-07T00:28:34;2.00;99.90
16958;DHT22;8595;52.542;11.974;2022-12-07T00:31:03;2.00;99.90
16958;DHT22;8595;52.542;11.974;2022-12-07T00:33:30;2.00;99.90
16958;DHT22;8595;52.542;11.974;2022-12-07T00:35:57;2.00;99.90
16958;DHT22;8595;52.542;11.974;2022-12-07T00:38:28;2.00;99.90
16958;DHT22;8595;52.542;11.974;2022-12-07T00:40:56;2.00;99.90
16958;DHT22;8595;52.542;11.974;2022-12-07T00:43:23;2.00;99.90
16958;DHT22;8595;52.542;11.974;2022-12-07T00:45:51;2.00;99.90
16958;DHT22;8595;52.542;11.974;2022-12-07T00:48:17;2.00;99.90
16958;DHT22;8595;52.542;11.974;2022-12-07T00:50:44;2.00;99.90
16958;DHT22;8595;52.542;11.974;2022-12-07T00:53:11;2.00;99.90
16958;DHT22;8595;52.542;11.974;2022-12-07T00:55:39;2.00;99.90
16958;DHT22;8595;52.542;11.974;2022-12-07T00:58:06;2.00;99.90
16958;DHT22;8595;52.542;11.974;2022-12-07T01:00:35;1.90;99.90
16958;DHT22;8595;52.542;11.974;2022-12-07T01:03:02;1.90;99.90
16958;DHT22;8595;52.542;11.974;2022-12-07T01:05:29;2.00;99.90
16958;DHT22;8595;52.542;11.974;2022-12-07T01:07:55;1.90;99.90
16958;DHT22;8595;52.542;11.974;2022-12-07T01:10:22;2.00;99.90
16958;DHT22;8595;52.542;11.974;2022-12-07T01:12:50;2.10;99.90
16958;DHT22;8595;52.542;11.974;2022-12-07T01:15:17;2.00;99.90
16958;DHT22;8595;52.542;11.974;2022-12-07T01:17:44;2.10;99.90
16958;DHT22;8595;52.542;11.974;2022-12-07T01:20:12;2.10;99.90
16958;DHT22;8595;52.542;11.974;2022-12-07T01:22:39;2.20;99.90
16958;DHT22;8595;52.542;11.974;2022-12-07T01:25:07;2.20;99.90
16958;DHT22;8595;52.542;11.974;2022-12-07T01:27:35;2.30;99.90
16958;DHT22;8595;52.542;11.974;2022-12-07T01:30:05;2.30;99.90
16958;DHT22;8595;52.542;11.974;2022-12-07T01:32:32;2.20;99.90
16958;DHT22;8595;52.542;11.974;2022-12-07T01:34:59;2.30;99.90
16958;DHT22;8595;52.542;11.974;2022-12-07T01:37:29;2.30;99.90
16958;DHT22;8595;52.542;11.974;2022-12-07T01:40:00;2.30;99.90
16958;DHT22;8595;52.542;11.974;2022-12-07T01:42:27;2.40;99.90
16958;DHT22;8595;52.542;11.974;2022-12-07T01:48:02;2.40;99.90
16958;DHT22;8595;52.542;11.974;2022-12-07T01:50:30;2.40;99.90
16958;DHT22;8595;52.542;11.974;2022-12-07T01:52:58;2.50;99.90
16958;DHT22;8595;52.542;11.974;2022-12-07T01:55:28;2.40;99.90
16958;DHT22;8595;52.542;11.974;2022-12-07T01:57:55;2.50;99.90
16958;DHT22;8595;52.542;11.974;2022-12-07T02:00:23;2.50;99.90
16958;DHT22;8595;52.542;11.974;2022-12-07T02:02:53;2.40;99.90
16958;DHT22;8595;52.542;11.974;2022-12-07T02:05:24;2.50;99.90
16958;DHT22;8595;52.542;11.974;2022-12-07T02:07:54;2.50;99.90
16958;DHT22;8595;52.542;11.974;2022-12-07T02:10:24;2.50;99.90
16958;DHT22;8595;52.542;11.974;2022-12-07T02:12:54;2.50;99.90
16958;DHT22;8595;52.542;11.974;2022-12-07T02:15:26;2.50;99.90
16958;DHT22;8595;52.542;11.974;2022-12-07T02:17:59;2.60;99.90
16958;DHT22;8595;52.542;11.974;2022-12-07T02:20:30;2.60;99.90
16958;DHT22;8595;52.542;11.974;2022-12-07T02:23:38;2.60;99.90
16958;DHT22;8595;52.542;11.974;2022-12-07T02:26:27;2.50;99.90
16958;DHT22;8595;52.542;11.974;2022-12-07T02:29:13;2.60;99.90
16958;DHT22;8595;52.542;11.974;2022-12-07T02:31:45;2.60;99.90
16958;DHT22;8595;52.542;11.974;2022-12-07T02:34:20;2.60;99.90
16958;DHT22;8595;52.542;11.974;2022-12-07T02:36:55;2.70;99.90
16958;DHT22;8595;52.542;11.974;2022-12-07T02:39:29;2.70;99.90
16958;DHT22;8595;52.542;11.974;2022-12-07T02:42:02;2.70;99.90
16958;DHT22;8595;52.542;11.974;2022-12-07T02:44:34;2.70;99.90
16958;DHT22;8595;52.542;11.974;2022-12-07T02:47:03;2.70;99.90
16958;DHT22;8595;52.542;11.974;2022-12-07T02:49:32;2.70;99.90
16958;DHT22;8595;52.542;11.974;2022-12-07T02:52:00;2.80;99.90
16958;DHT22;8595;52.542;11.974;2022-12-07T02:54:27;2.70;99.90
16958;DHT22;8595;52.542;11.974;2022-12-07T02:56:57;2.70;99.90
16958;DHT22;8595;52.542;11.974;2022-12-07T02:59:37;2.80;99.90
16958;DHT22;8595;52.542;11.974;2022-12-07T03:02:18;2.70;99.90
16958;DHT22;8595;52.542;11.974;2022-12-07T03:04:54;2.70;99.90
16958;DHT22;8595;52.542;11.974;2022-12-07T03:07:30;2.70;99.90
16958;DHT22;8595;52.542;11.974;2022-12-07T03:10:03;2.70;99.90
16958;DHT22;8595;52.542;11.974;2022-12-07T03:12:39;2.70;99.90
16958;DHT22;8595;52.542;11.974;2022-12-07T03:15:13;2.60;99.90
16958;DHT22;8595;52.542;11.974;2022-12-07T03:17:42;2.70;99.90
16958;DHT22;8595;52.542;11.974;2022-12-07T03:20:13;2.70;99.90
16958;DHT22;8595;52.542;11.974;2022-12-07T03:22:42;2.80;99.90
16958;DHT22;8595;52.542;11.974;2022-12-07T03:25:11;2.80;99.90
16958;DHT22;8595;52.542;11.974;2022-12-07T03:27:41;2.80;99.90
16958;DHT22;8595;52.542;11.974;2022-12-07T03:30:16;2.90;99.90
16958;DHT22;8595;52.542;11.974;2022-12-07T03:32:45;2.90;99.90
16958;DHT22;8595;52.542;11.974;2022-12-07T03:35:18;2.90;99.90
16958;DHT22;8595;52.542;11.974;2022-12-07T03:37:50;2.90;99.90
16958;DHT22;8595;52.542;11.974;2022-12-07T03:40:22;2.90;99.90
16958;DHT22;8595;52.542;11.974;2022-12-07T03:42:51;3.00;99.90
16958;DHT22;8595;52.542;11.974;2022-12-07T03:45:23;3.00;99.90
16958;DHT22;8595;52.542;11.974;2022-12-07T03:47:58;3.10;99.90
16958;DHT22;8595;52.542;11.974;2022-12-07T03:50:31;3.10;99.90
16958;DHT22;8595;52.542;11.974;2022-12-07T03:53:02;3.10;99.90
16958;DHT22;8595;52.542;11.974;2022-12-07T03:55:33;3.10;99.90
16958;DHT22;8595;52.542;11.974;2022-12-07T03:58:04;3.20;99.90
16958;DHT22;8595;52.542;11.974;2022-12-07T04:00:33;3.20;99.90
16958;DHT22;8595;52.542;11.974;2022-12-07T04:02:59;3.20;99.90
16958;DHT22;8595;52.542;11.974;2022-12-07T04:05:26;3.20;99.90
16958;DHT22;8595;52.542;11.974;2022-12-07T04:07:54;3.30;99.90
16958;DHT22;8595;52.542;11.974;2022-12-07T04:10:21;3.30;99.90
16958;DHT22;8595;52.542;11.974;2022-12-07T04:12:47;3.40;99.90
16958;DHT22;8595;52.542;11.974;2022-12-07T04:15:14;3.40;99.90
16958;DHT22;8595;52.542;11.974;2022-12-07T04:17:43;3.40;99.90
16958;DHT22;8595;52.542;11.974;2022-12-07T04:20:11;3.50;99.90
16958;DHT22;8595;52.542;11.974;2022-12-07T04:22:38;3.60;99.90
16958;DHT22;8595;52.542;11.974;2022-12-07T04:25:05;3.70;99.90
16958;DHT22;8595;52.542;11.974;2022-12-07T04:27:32;3.70;99.90
16958;DHT22;8595;52.542;11.974;2022-12-07T04:29:59;3.80;99.90
16958;DHT22;8595;52.542;11.974;2022-12-07T04:32:26;3.90;99.90
16958;DHT22;8595;52.542;11.974;2022-12-07T04:34:54;4.00;99.90
16958;DHT22;8595;52.542;11.974;2022-12-07T04:37:22;4.00;99.90
16958;DHT22;8595;52.542;11.974;2022-12-07T04:39:49;4.10;99.90
16958;DHT22;8595;52.542;11.974;2022-12-07T04:42:16;4.20;99.90
16958;DHT22;8595;52.542;11.974;2022-12-07T04:44:43;4.20;99.90
16958;DHT22;8595;52.542;11.974;2022-12-07T04:47:10;4.20;99.90
16958;DHT22;8595;52.542;11.974;2022-12-07T04:49:36;4.20;99.90
16958;DHT22;8595;52.542;11.974;2022-12-07T04:52:05;4.20;99.90
16958;DHT22;8595;52.542;11.974;2022-12-07T04:54:31;4.30;99.90
16958;DHT22;8595;52.542;11.974;2022-12-07T04:56:59;4.20;99.90
16958;DHT22;8595;52.542;11.974;2022-12-07T04:59:26;4.30;99.90
16958;DHT22;8595;52.542;11.974;2022-12-07T05:01:52;4.30;99.90
16958;DHT22;8595;52.542;11.974;2022-12-07T05:04:19;4.30;99.90
16958;DHT22;8595;52.542;11.974;2022-12-07T05:06:46;4.30;99.90
16958;DHT22;8595;52.542;11.974;2022-12-07T05:09:14;4.30;99.90
16958;DHT22;8595;52.542;11.974;2022-12-07T05:11:41;4.40;99.90
16958;DHT22;8595;52.542;11.974;2022-12-07T05:14:12;4.40;99.90
16958;DHT22;8595;52.542;11.974;2022-12-07T05:16:39;4.30;99.90
16958;DHT22;8595;52.542;11.974;2022-12-07T05:19:07;4.30;99.90
16958;DHT22;8595;52.542;11.974;2022-12-07T05:21:34;4.30;99.90
16958;DHT22;8595;52.542;11.974;2022-12-07T05:24:01;4.40;99.90
16958;DHT22;8595;52.542;11.974;2022-12-07T05:26:30;4.40;99.90
16958;DHT22;8595;52.542;11.974;2022-12-07T05:28:57;4.30;99.90
16958;DHT22;8595;52.542;11.974;2022-12-07T05:31:25;4.30;99.90
16958;DHT22;8595;52.542;11.974;2022-12-07T05:33:52;4.30;99.90
16958;DHT22;8595;52.542;11.974;2022-12-07T05:36:20;4.30;99.90
16958;DHT22;8595;52.542;11.974;2022-12-07T05:38:47;4.20;99.90
16958;DHT22;8595;52.542;11.974;2022-12-07T05:41:16;4.20;99.90
16958;DHT22;8595;52.542;11.974;2022-12-07T05:44:02;4.10;99.90
16958;DHT22;8595;52.542;11.974;2022-12-07T05:46:29;4.00;99.90
16958;DHT22;8595;52.542;11.974;2022-12-07T05:48:55;4.10;99.90
16958;DHT22;8595;52.542;11.974;2022-12-07T05:51:22;4.10;99.90
16958;DHT22;8595;52.542;11.974;2022-12-07T05:53:49;4.20;99.90
16958;DHT22;8595;52.542;11.974;2022-12-07T05:56:16;4.20;99.90
16958;DHT22;8595;52.542;11.974;2022-12-07T05:58:42;4.20;99.90
16958;DHT22;8595;52.542;11.974;2022-12-07T06:01:28;4.20;99.90
16958;DHT22;8595;52.542;11.974;2022-12-07T06:03:55;4.20;99.90
16958;DHT22;8595;52.542;11.974;2022-12-07T06:06:21;4.10;99.90
16958;DHT22;8595;52.542;11.974;2022-12-07T06:08:48;4.10;99.90
16958;DHT22;8595;52.542;11.974;2022-12-07T06:11:15;4.20;99.90
16958;DHT22;8595;52.542;11.974;2022-12-07T06:13:59;4.20;99.90
16958;DHT22;8595;52.542;11.974;2022-12-07T06:16:28;4.20;99.90
16958;DHT22;8595;52.542;11.974;2022-12-07T06:18:55;4.20;99.90
16958;DHT22;8595;52.542;11.974;2022-12-07T06:21:21;4.20;99.90
16958;DHT22;8595;52.542;11.974;2022-12-07T06:23:48;4.20;99.90
16958;DHT22;8595;52.542;11.974;2022-12-07T06:26:15;4.20;99.90
16958;DHT22;8595;52.542;11.974;2022-12-07T06:28:42;4.20;99.90
16958;DHT22;8595;52.542;11.974;2022-12-07T06:31:09;4.20;99.90
16958;DHT22;8595;52.542;11.974;2022-12-07T06:33:37;4.20;99.90
16958;DHT22;8595;52.542;11.974;2022-12-07T06:36:04;4.20;99.90
16958;DHT22;8595;52.542;11.974;2022-12-07T06:38:31;4.20;99.90
16958;DHT22;8595;52.542;11.974;2022-12-07T06:40:58;4.10;99.90
16958;DHT22;8595;52.542;11.974;2022-12-07T06:43:25;4.20;99.90
16958;DHT22;8595;52.542;11.974;2022-12-07T06:45:53;4.20;99.90
16958;DHT22;8595;52.542;11.974;2022-12-07T06:48:20;4.20;99.90
16958;DHT22;8595;52.542;11.974;2022-12-07T06:50:48;4.10;99.90
16958;DHT22;8595;52.542;11.974;2022-12-07T06:53:15;4.00;99.90
16958;DHT22;8595;52.542;11.974;2022-12-07T06:55:41;4.00;99.90
16958;DHT22;8595;52.542;11.974;2022-12-07T06:58:08;4.00;99.90
16958;DHT22;8595;52.542;11.974;2022-12-07T07:00:35;4.00;99.90
16958;DHT22;8595;52.542;11.974;2022-12-07T07:03:02;4.00;99.90
16958;DHT22;8595;52.542;11.974;2022-12-07T07:05:30;4.00;99.90
16958;DHT22;8595;52.542;11.974;2022-12-07T07:07:58;3.90;99.90
16958;DHT22;8595;52.542;11.974;2022-12-07T07:10:24;3.90;99.90
16958;DHT22;8595;52.542;11.974;2022-12-07T07:12:51;3.90;99.90
16958;DHT22;8595;52.542;11.974;2022-12-07T07:15:18;3.90;99.90
16958;DHT22;8595;52.542;11.974;2022-12-07T07:17:45;3.80;99.90
16958;DHT22;8595;52.542;11.974;2022-12-07T07:20:12;3.80;99.90
16958;DHT22;8595;52.542;11.974;2022-12-07T07:22:39;3.80;99.90
16958;DHT22;8595;52.542;11.974;2022-12-07T07:25:08;3.80;99.90
16958;DHT22;8595;52.542;11.974;2022-12-07T07:27:35;3.80;99.90
16958;DHT22;8595;52.542;11.974;2022-12-07T07:30:02;3.80;99.90
16958;DHT22;8595;52.542;11.974;2022-12-07T07:32:29;3.70;99.90
16958;DHT22;8595;52.542;11.974;2022-12-07T07:34:56;3.70;99.90
16958;DHT22;8595;52.542;11.974;2022-12-07T07:37:23;3.70;99.90
16958;DHT22;8595;52.542;11.974;2022-12-07T07:39:50;3.70;99.90
16958;DHT22;8595;52.542;11.974;2022-12-07T07:42:18;3.70;99.90
16958;DHT22;8595;52.542;11.974;2022-12-07T07:44:44;3.70;99.90
16958;DHT22;8595;52.542;11.974;2022-12-07T07:47:11;3.70;99.90
16958;DHT22;8595;52.542;11.974;2022-12-07T07:49:38;3.70;99.90
16958;DHT22;8595;52.542;11.974;2022-12-07T07:52:05;3.60;99.90
16958;DHT22;8595;52.542;11.974;2022-12-07T07:54:32;3.60;99.90
16958;DHT22;8595;52.542;11.974;2022-12-07T07:56:59;3.60;99.90
16958;DHT22;8595;52.542;11.974;2022-12-07T07:59:27;3.60;99.90
16958;DHT22;8595;52.542;11.974;2022-12-07T08:01:54;3.60;99.90
16958;DHT22;8595;52.542;11.974;2022-12-07T08:04:21;3.60;99.90
16958;DHT22;8595;52.542;11.974;2022-12-07T08:06:48;3.60;99.90
16958;DHT22;8595;52.542;11.974;2022-12-07T08:09:15;3.50;99.90
16958;DHT22;8595;52.542;11.974;2022-12-07T08:11:41;3.50;99.90
16958;DHT22;8595;52.542;11.974;2022-12-07T08:14:09;3.40;99.90
16958;DHT22;8595;52.542;11.974;2022-12-07T08:16:38;3.40;99.90
16958;DHT22;8595;52.542;11.974;2022-12-07T08:19:06;3.40;99.90
16958;DHT22;8595;52.542;11.974;2022-12-07T08:21:33;3.40;99.90
16958;DHT22;8595;52.542;11.974;2022-12-07T08:23:59;3.50;99.90
16958;DHT22;8595;52.542;11.974;2022-12-07T08:26:26;3.50;99.90
16958;DHT22;8595;52.542;11.974;2022-12-07T08:28:53;3.50;99.90
16958;DHT22;8595;52.542;11.974;2022-12-07T08:31:20;3.40;99.90
16958;DHT22;8595;52.542;11.974;2022-12-07T08:33:48;3.40;99.90
16958;DHT22;8595;52.542;11.974;2022-12-07T08:36:16;3.40;99.90
16958;DHT22;8595;52.542;11.974;2022-12-07T08:38:43;3.50;99.90
16958;DHT22;8595;52.542;11.974;2022-12-07T08:41:10;3.50;99.90
16958;DHT22;8595;52.542;11.974;2022-12-07T08:43:37;3.60;99.90
16958;DHT22;8595;52.542;11.974;2022-12-07T08:46:07;3.60;99.90
16958;DHT22;8595;52.542;11.974;2022-12-07T08:48:37;3.50;99.90
16958;DHT22;8595;52.542;11.974;2022-12-07T08:51:06;3.50;99.90
16958;DHT22;8595;52.542;11.974;2022-12-07T08:53:33;3.70;99.90
16958;DHT22;8595;52.542;11.974;2022-12-07T08:56:01;3.70;99.90
16958;DHT22;8595;52.542;11.974;2022-12-07T08:58:28;3.70;99.90
16958;DHT22;8595;52.542;11.974;2022-12-07T09:00:55;3.70;99.90
16958;DHT22;8595;52.542;11.974;2022-12-07T09:03:22;3.70;99.90
16958;DHT22;8595;52.542;11.974;2022-12-07T09:05:48;3.70;99.90
16958;DHT22;8595;52.542;11.974;2022-12-07T09:08:17;3.70;99.90
16958;DHT22;8595;52.542;11.974;2022-12-07T09:10:44;3.60;99.90
16958;DHT22;8595;52.542;11.974;2022-12-07T09:13:11;3.70;99.90
16958;DHT22;8595;52.542;11.974;2022-12-07T09:15:38;3.70;99.90
16958;DHT22;8595;52.542;11.974;2022-12-07T09:18:05;3.80;99.90
16958;DHT22;8595;52.542;11.974;2022-12-07T09:20:32;3.80;99.90
16958;DHT22;8595;52.542;11.974;2022-12-07T09:22:59;3.80;99.90
16958;DHT22;8595;52.542;11.974;2022-12-07T09:25:27;3.80;99.90
16958;DHT22;8595;52.542;11.974;2022-12-07T09:27:58;3.90;99.90
16958;DHT22;8595;52.542;11.974;2022-12-07T09:30:25;3.90;99.90
16958;DHT22;8595;52.542;11.974;2022-12-07T09:32:53;4.00;99.90
16958;DHT22;8595;52.542;11.974;2022-12-07T09:35:20;4.00;99.90
16958;DHT22;8595;52.542;11.974;2022-12-07T09:37:47;4.10;99.90
16958;DHT22;8595;52.542;11.974;2022-12-07T09:40:15;4.10;99.90
16958;DHT22;8595;52.542;11.974;2022-12-07T09:42:48;4.20;99.90
16958;DHT22;8595;52.542;11.974;2022-12-07T09:45:19;4.30;99.90
16958;DHT22;8595;52.542;11.974;2022-12-07T09:47:47;4.20;99.90
16958;DHT22;8595;52.542;11.974;2022-12-07T09:50:17;4.20;99.90
16958;DHT22;8595;52.542;11.974;2022-12-07T09:52:45;4.20;99.90
16958;DHT22;8595;52.542;11.974;2022-12-07T09:55:15;4.30;99.90
16958;DHT22;8595;52.542;11.974;2022-12-07T09:57:44;4.30;99.90
16958;DHT22;8595;52.542;11.974;2022-12-07T10:00:14;4.50;99.90
16958;DHT22;8595;52.542;11.974;2022-12-07T10:02:42;4.50;99.90
16958;DHT22;8595;52.542;11.974;2022-12-07T10:05:13;4.50;99.90
16958;DHT22;8595;52.542;11.974;2022-12-07T10:07:40;4.60;99.90
16958;DHT22;8595;52.542;11.974;2022-12-07T10:10:15;4.60;99.90
16958;DHT22;8595;52.542;11.974;2022-12-07T10:12:58;4.60;99.90
16958;DHT22;8595;52.542;11.974;2022-12-07T10:15:45;4.70;99.90
16958;DHT22;8595;52.542;11.974;2022-12-07T10:18:26;4.80;99.90
16958;DHT22;8595;52.542;11.974;2022-12-07T10:21:02;4.80;99.90
16958;DHT22;8595;52.542;11.974;2022-12-07T10:23:29;4.80;99.90
16958;DHT22;8595;52.542;11.974;2022-12-07T10:25:56;4.80;99.90
16958;DHT22;8595;52.542;11.974;2022-12-07T10:28:34;4.80;99.90
16958;DHT22;8595;52.542;11.974;2022-12-07T10:31:15;4.90;99.90
16958;DHT22;8595;52.542;11.974;2022-12-07T10:33:50;4.80;99.90
16958;DHT22;8595;52.542;11.974;2022-12-07T10:36:21;4.70;99.90
16958;DHT22;8595;52.542;11.974;2022-12-07T10:38:50;4.70;99.90
16958;DHT22;8595;52.542;11.974;2022-12-07T10:41:18;4.70;99.90
16958;DHT22;8595;52.542;11.974;2022-12-07T10:43:52;5.00;99.90
16958;DHT22;8595;52.542;11.974;2022-12-07T10:52:13;5.20;99.90
16958;DHT22;8595;52.542;11.974;2022-12-07T10:54:51;5.30;99.90
16958;DHT22;8595;52.542;11.974;2022-12-07T10:57:33;5.30;99.90
16958;DHT22;8595;52.542;11.974;2022-12-07T11:00:11;5.20;99.90
16958;DHT22;8595;52.542;11.974;2022-12-07T11:03:01;5.30;99.90
16958;DHT22;8595;52.542;11.974;2022-12-07T11:05:39;5.20;99.90
16958;DHT22;8595;52.542;11.974;2022-12-07T11:08:15;5.10;99.90
16958;DHT22;8595;52.542;11.974;2022-12-07T11:10:49;5.10;99.90
16958;DHT22;8595;52.542;11.974;2022-12-07T11:13:25;5.30;99.90
16958;DHT22;8595;52.542;11.974;2022-12-07T11:16:04;5.50;99.90
16958;DHT22;8595;52.542;11.974;2022-12-07T11:18:39;5.60;99.90
16958;DHT22;8595;52.542;11.974;2022-12-07T11:21:16;5.60;99.90
16958;DHT22;8595;52.542;11.974;2022-12-07T11:23:49;5.80;99.90
16958;DHT22;8595;52.542;11.974;2022-12-07T11:26:25;5.70;99.90
16958;DHT22;8595;52.542;11.974;2022-12-07T11:29:05;5.70;99.90
16958;DHT22;8595;52.542;11.974;2022-12-07T11:31:38;5.50;99.90
16958;DHT22;8595;52.542;11.974;2022-12-07T11:34:17;5.40;99.90
16958;DHT22;8595;52.542;11.974;2022-12-07T11:36:49;5.30;99.90
16958;DHT22;8595;52.542;11.974;2022-12-07T11:39:24;5.30;99.90
16958;DHT22;8595;52.542;11.974;2022-12-07T11:41:55;5.20;99.90
16958;DHT22;8595;52.542;11.974;2022-12-07T11:44:30;5.00;99.90
16958;DHT22;8595;52.542;11.974;2022-12-07T11:47:02;5.00;99.90
16958;DHT22;8595;52.542;11.974;2022-12-07T11:49:41;5.00;99.90
16958;DHT22;8595;52.542;11.974;2022-12-07T11:52:20;5.00;99.90
16958;DHT22;8595;52.542;11.974;2022-12-07T11:54:50;5.10;99.90
16958;DHT22;8595;52.542;11.974;2022-12-07T11:57:23;5.20;99.90
16958;DHT22;8595;52.542;11.974;2022-12-07T11:59:54;5.10;99.90
16958;DHT22;8595;52.542;11.974;2022-12-07T12:02:28;5.20;99.90
16958;DHT22;8595;52.542;11.974;2022-12-07T12:05:04;5.10;99.90
16958;DHT22;8595;52.542;11.974;2022-12-07T13:07:02;5.00;99.90
16958;DHT22;8595;52.542;11.974;2022-12-07T13:09:30;4.80;99.90
16958;DHT22;8595;52.542;11.974;2022-12-07T13:12:02;4.80;99.90
16958;DHT22;8595;52.542;11.974;2022-12-07T13:17:58;4.80;99.90
16958;DHT22;8595;52.542;11.974;2022-12-07T13:23:09;4.90;99.90
16958;DHT22;8595;52.542;11.974;2022-12-07T13:25:44;5.00;99.90
16958;DHT22;8595;52.542;11.974;2022-12-07T13:28:16;5.00;99.90
16958;DHT22;8595;52.542;11.974;2022-12-07T13:30:50;5.00;99.90
16958;DHT22;8595;52.542;11.974;2022-12-07T13:33:20;4.90;99.90
16958;DHT22;8595;52.542;11.974;2022-12-07T13:35:47;4.80;99.90
16958;DHT22;8595;52.542;11.974;2022-12-07T13:38:24;4.90;99.90
16958;DHT22;8595;52.542;11.974;2022-12-07T13:41:12;4.90;99.90
16958;DHT22;8595;52.542;11.974;2022-12-07T13:43:44;4.90;99.90
16958;DHT22;8595;52.542;11.974;2022-12-07T13:46:12;4.80;99.90
16958;DHT22;8595;52.542;11.974;2022-12-07T13:48:44;4.70;99.90
16958;DHT22;8595;52.542;11.974;2022-12-07T13:51:18;4.60;99.90
16958;DHT22;8595;52.542;11.974;2022-12-07T13:53:48;4.60;99.90
16958;DHT22;8595;52.542;11.974;2022-12-07T13:56:15;4.60;99.90
16958;DHT22;8595;52.542;11.974;2022-12-07T13:58:42;4.60;99.90
16958;DHT22;8595;52.542;11.974;2022-12-07T14:01:10;4.60;99.90
16958;DHT22;8595;52.542;11.974;2022-12-07T14:03:39;4.60;99.90
16958;DHT22;8595;52.542;11.974;2022-12-07T14:06:15;4.50;99.90
16958;DHT22;8595;52.542;11.974;2022-12-07T14:08:43;4.50;99.90
16958;DHT22;8595;52.542;11.974;2022-12-07T14:11:15;4.40;99.90
16958;DHT22;8595;52.542;11.974;2022-12-07T14:13:56;4.40;99.90
16958;DHT22;8595;52.542;11.974;2022-12-07T14:16:27;4.40;99.90
16958;DHT22;8595;52.542;11.974;2022-12-07T14:18:55;4.30;99.90
16958;DHT22;8595;52.542;11.974;2022-12-07T14:21:24;4.30;99.90
16958;DHT22;8595;52.542;11.974;2022-12-07T14:24:16;4.20;99.90
16958;DHT22;8595;52.542;11.974;2022-12-07T14:26:46;4.10;99.90
16958;DHT22;8595;52.542;11.974;2022-12-07T14:29:31;4.00;99.90
16958;DHT22;8595;52.542;11.974;2022-12-07T14:32:13;3.90;99.90
16958;DHT22;8595;52.542;11.974;2022-12-07T14:34:41;4.00;99.90
16958;DHT22;8595;52.542;11.974;2022-12-07T14:37:09;4.00;99.90
16958;DHT22;8595;52.542;11.974;2022-12-07T14:39:36;3.90;99.90
16958;DHT22;8595;52.542;11.974;2022-12-07T14:42:04;3.90;99.90
16958;DHT22;8595;52.542;11.974;2022-12-07T14:44:31;3.90;99.90
16958;DHT22;8595;52.542;11.974;2022-12-07T14:46:58;3.90;99.90
16958;DHT22;8595;52.542;11.974;2022-12-07T14:49:24;3.80;99.90
16958;DHT22;8595;52.542;11.974;2022-12-07T14:51:52;3.80;99.90
16958;DHT22;8595;52.542;11.974;2022-12-07T14:54:20;3.80;99.90
16958;DHT22;8595;52.542;11.974;2022-12-07T14:56:47;3.80;99.90
16958;DHT22;8595;52.542;11.974;2022-12-07T14:59:17;3.80;99.90
16958;DHT22;8595;52.542;11.974;2022-12-07T15:01:45;3.80;99.90
16958;DHT22;8595;52.542;11.974;2022-12-07T15:04:12;3.70;99.90
16958;DHT22;8595;52.542;11.974;2022-12-07T15:06:39;3.70;99.90
16958;DHT22;8595;52.542;11.974;2022-12-07T15:09:10;3.70;99.90
16958;DHT22;8595;52.542;11.974;2022-12-07T15:11:37;3.60;99.90
16958;DHT22;8595;52.542;11.974;2022-12-07T15:14:03;3.60;99.90
16958;DHT22;8595;52.542;11.974;2022-12-07T15:16:40;3.60;99.90
16958;DHT22;8595;52.542;11.974;2022-12-07T15:19:11;3.60;99.90
16958;DHT22;8595;52.542;11.974;2022-12-07T15:21:38;3.60;99.90
16958;DHT22;8595;52.542;11.974;2022-12-07T15:24:05;3.50;99.90
16958;DHT22;8595;52.542;11.974;2022-12-07T15:26:32;3.50;99.90
16958;DHT22;8595;52.542;11.974;2022-12-07T15:28:59;3.50;99.90
16958;DHT22;8595;52.542;11.974;2022-12-07T15:31:26;3.50;99.90
16958;DHT22;8595;52.542;11.974;2022-12-07T15:33:54;3.50;99.90
16958;DHT22;8595;52.542;11.974;2022-12-07T15:36:23;3.40;99.90
16958;DHT22;8595;52.542;11.974;2022-12-07T15:38:50;3.40;99.90
16958;DHT22;8595;52.542;11.974;2022-12-07T15:41:17;3.40;99.90
16958;DHT22;8595;52.542;11.974;2022-12-07T15:43:44;3.40;99.90
16958;DHT22;8595;52.542;11.974;2022-12-07T15:46:32;3.40;99.90
16958;DHT22;8595;52.542;11.974;2022-12-07T15:49:01;3.50;99.90
16958;DHT22;8595;52.542;11.974;2022-12-07T15:51:27;3.50;99.90
16958;DHT22;8595;52.542;11.974;2022-12-07T15:53:54;3.50;99.90
16958;DHT22;8595;52.542;11.974;2022-12-07T15:56:21;3.40;99.90
16958;DHT22;8595;52.542;11.974;2022-12-07T15:58:48;3.50;99.90
16958;DHT22;8595;52.542;11.974;2022-12-07T16:01:16;3.40;99.90
16958;DHT22;8595;52.542;11.974;2022-12-07T16:03:44;3.40;99.90
16958;DHT22;8595;52.542;11.974;2022-12-07T16:06:15;3.40;99.90
16958;DHT22;8595;52.542;11.974;2022-12-07T16:08:42;3.40;99.90
16958;DHT22;8595;52.542;11.974;2022-12-07T16:11:10;3.50;99.90
16958;DHT22;8595;52.542;11.974;2022-12-07T16:13:37;3.50;99.90
16958;DHT22;8595;52.542;11.974;2022-12-07T16:16:05;3.50;99.90
16958;DHT22;8595;52.542;11.974;2022-12-07T16:18:33;3.50;99.90
16958;DHT22;8595;52.542;11.974;2022-12-07T16:21:00;3.50;99.90
16958;DHT22;8595;52.542;11.974;2022-12-07T16:23:28;3.50;99.90
16958;DHT22;8595;52.542;11.974;2022-12-07T16:26:04;3.50;99.90
16958;DHT22;8595;52.542;11.974;2022-12-07T16:28:31;3.50;99.90
16958;DHT22;8595;52.542;11.974;2022-12-07T16:31:02;3.50;99.90
16958;DHT22;8595;52.542;11.974;2022-12-07T16:33:29;3.50;99.90
16958;DHT22;8595;52.542;11.974;2022-12-07T16:35:57;3.50;99.90
16958;DHT22;8595;52.542;11.974;2022-12-07T16:38:24;3.50;99.90
16958;DHT22;8595;52.542;11.974;2022-12-07T16:40:52;3.50;99.90
16958;DHT22;8595;52.542;11.974;2022-12-07T16:43:19;3.50;99.90
16958;DHT22;8595;52.542;11.974;2022-12-07T16:45:46;3.50;99.90
16958;DHT22;8595;52.542;11.974;2022-12-07T16:48:14;3.50;99.90
16958;DHT22;8595;52.542;11.974;2022-12-07T16:50:42;3.50;99.90
16958;DHT22;8595;52.542;11.974;2022-12-07T16:53:09;3.50;99.90
16958;DHT22;8595;52.542;11.974;2022-12-07T16:55:37;3.50;99.90
16958;DHT22;8595;52.542;11.974;2022-12-07T16:58:05;3.40;99.90
16958;DHT22;8595;52.542;11.974;2022-12-07T17:00:32;3.40;99.90
16958;DHT22;8595;52.542;11.974;2022-12-07T17:02:59;3.40;99.90
16958;DHT22;8595;52.542;11.974;2022-12-07T17:05:26;3.40;99.90
16958;DHT22;8595;52.542;11.974;2022-12-07T17:07:53;3.30;99.90
16958;DHT22;8595;52.542;11.974;2022-12-07T17:10:20;3.30;99.90
16958;DHT22;8595;52.542;11.974;2022-12-07T17:12:47;3.20;99.90
16958;DHT22;8595;52.542;11.974;2022-12-07T17:15:16;3.20;99.90